createdAt,value
2023-01-06T00:01:19.734Z,13.70
2023-01-06T00:03:51.785Z,13.70
2023-01-06T00:06:22.249Z,13.70
2023-01-06T00:08:49.011Z,13.70
2023-01-06T00:11:16.093Z,13.70
2023-01-06T00:13:43.958Z,13.80
2023-01-06T00:16:16.481Z,13.80
2023-01-06T00:18:47.050Z,13.80
2023-01-06T00:21:15.105Z,13.80
2023-01-06T00:23:42.099Z,13.80
2023-01-06T00:26:10.134Z,13.80
2023-01-06T00:28:37.461Z,13.80
2023-01-06T00:31:13.166Z,13.80
2023-01-06T00:33:39.988Z,13.80
2023-01-06T00:36:08.197Z,13.80
2023-01-06T00:38:38.144Z,13.80
2023-01-06T00:41:32.061Z,13.80
2023-01-06T00:43:59.578Z,13.80
2023-01-06T00:46:29.629Z,13.80
2023-01-06T00:49:05.601Z,13.80
2023-01-06T00:51:34.003Z,13.90
2023-01-06T00:54:01.023Z,13.90
2023-01-06T00:56:27.779Z,13.90
2023-01-06T00:58:55.560Z,13.90
2023-01-06T01:01:22.444Z,13.90
2023-01-06T01:03:49.191Z,13.90
2023-01-06T01:06:16.691Z,13.80
2023-01-06T01:08:43.894Z,13.90
2023-01-06T01:11:32.509Z,13.90
2023-01-06T01:13:59.483Z,13.90
2023-01-06T01:16:27.358Z,13.90
2023-01-06T01:18:54.242Z,13.90
2023-01-06T01:21:21.051Z,13.80
2023-01-06T01:23:49.044Z,13.90
2023-01-06T01:26:15.910Z,13.90
2023-01-06T01:28:44.609Z,13.90
2023-01-06T01:31:13.029Z,13.80
2023-01-06T01:33:39.765Z,13.80
2023-01-06T01:36:11.992Z,13.80
2023-01-06T01:38:38.865Z,13.80
2023-01-06T01:41:06.503Z,13.80
2023-01-06T01:43:54.601Z,13.80
2023-01-06T01:46:40.926Z,13.70
2023-01-06T01:49:32.238Z,13.70
2023-01-06T01:51:59.475Z,13.70
2023-01-06T01:54:30.488Z,13.70
2023-01-06T01:57:05.802Z,13.70
2023-01-06T01:59:36.591Z,13.70
2023-01-06T02:02:03.469Z,13.70
2023-01-06T02:04:33.284Z,13.70
2023-01-06T02:07:00.851Z,13.70
2023-01-06T02:09:37.157Z,13.70
2023-01-06T02:12:09.196Z,13.70
2023-01-06T02:14:35.945Z,13.70
2023-01-06T02:17:18.422Z,13.70
2023-01-06T02:20:00.185Z,13.70
2023-01-06T02:22:53.144Z,13.70
2023-01-06T02:25:48.944Z,13.60
2023-01-06T02:28:49.962Z,13.60
2023-01-06T02:31:40.687Z,13.60
2023-01-06T02:34:18.109Z,13.60
2023-01-06T02:37:02.584Z,13.60
2023-01-06T02:39:44.581Z,13.60
2023-01-06T02:42:19.376Z,13.60
2023-01-06T02:45:02.272Z,13.60
2023-01-06T02:47:39.359Z,13.50
2023-01-06T02:50:24.775Z,13.50
2023-01-06T02:53:23.962Z,13.50
2023-01-06T02:55:54.014Z,13.40
2023-01-06T02:58:45.815Z,13.30
2023-01-06T03:01:18.848Z,13.20
2023-01-06T03:03:48.080Z,13.10
2023-01-06T03:06:24.085Z,13.00
2023-01-06T03:08:53.705Z,13.00
2023-01-06T03:11:20.869Z,12.90
2023-01-06T03:13:59.576Z,12.90
2023-01-06T03:16:26.781Z,13.00
2023-01-06T03:18:55.382Z,13.00
2023-01-06T03:21:27.832Z,13.10
2023-01-06T03:23:54.669Z,13.10
2023-01-06T03:26:21.746Z,13.10
2023-01-06T03:28:48.455Z,13.10
2023-01-06T03:31:39.990Z,13.10
2023-01-06T03:34:39.530Z,13.10
2023-01-06T03:37:21.704Z,13.00
2023-01-06T03:40:27.387Z,12.90
2023-01-06T03:43:12.927Z,12.90
2023-01-06T03:45:42.282Z,12.90
2023-01-06T03:48:30.734Z,12.90
2023-01-06T03:51:10.029Z,12.80
2023-01-06T03:53:50.998Z,12.80
2023-01-06T03:56:30.889Z,12.80
2023-01-06T03:59:11.683Z,12.70
2023-01-06T04:01:43.369Z,12.80
2023-01-06T04:04:10.347Z,12.80
2023-01-06T04:06:37.398Z,12.80
2023-01-06T04:09:04.502Z,12.80
2023-01-06T04:11:49.893Z,12.80
2023-01-06T04:14:16.737Z,12.80
2023-01-06T04:16:43.647Z,12.80
2023-01-06T04:19:10.374Z,12.80
2023-01-06T04:21:37.200Z,12.90
2023-01-06T04:24:04.393Z,12.90
2023-01-06T04:26:33.573Z,12.90
2023-01-06T04:29:01.364Z,12.90
2023-01-06T04:31:28.663Z,13.00
2023-01-06T04:33:55.420Z,12.90
2023-01-06T04:36:22.220Z,12.80
2023-01-06T04:38:48.921Z,12.90
2023-01-06T04:41:15.640Z,12.80
2023-01-06T04:43:42.395Z,12.80
2023-01-06T04:46:09.318Z,12.80
2023-01-06T04:48:36.083Z,12.80
2023-01-06T04:51:08.737Z,12.80
2023-01-06T04:53:37.014Z,12.90
2023-01-06T04:56:05.444Z,12.90
2023-01-06T04:58:32.808Z,12.90
2023-01-06T05:01:06.775Z,12.90
2023-01-06T05:03:35.143Z,12.90
2023-01-06T05:06:03.625Z,12.90
2023-01-06T05:08:31.787Z,12.90
2023-01-06T05:11:03.844Z,12.90
2023-01-06T05:13:32.250Z,13.00
2023-01-06T05:15:59.066Z,13.00
2023-01-06T05:18:26.113Z,12.90
2023-01-06T05:20:56.894Z,12.90
2023-01-06T05:23:23.645Z,12.90
2023-01-06T05:25:52.588Z,12.80
2023-01-06T05:28:19.603Z,12.80
2023-01-06T05:30:46.810Z,12.80
2023-01-06T05:33:14.261Z,12.80
2023-01-06T05:35:41.093Z,12.80
2023-01-06T05:38:07.922Z,12.90
2023-01-06T05:40:35.578Z,12.90
2023-01-06T05:43:02.280Z,12.90
2023-01-06T05:45:29.050Z,12.90
2023-01-06T05:47:55.794Z,12.80
2023-01-06T05:50:25.591Z,12.80
2023-01-06T05:52:53.789Z,12.70
2023-01-06T05:55:21.504Z,12.70
2023-01-06T05:57:48.224Z,12.70
2023-01-06T06:00:16.762Z,12.70
2023-01-06T06:02:43.495Z,12.70
2023-01-06T06:05:10.496Z,12.70
2023-01-06T06:07:40.571Z,12.70
2023-01-06T06:10:11.651Z,12.80
2023-01-06T06:12:39.398Z,12.80
2023-01-06T06:15:08.780Z,12.80
2023-01-06T06:17:35.503Z,12.80
2023-01-06T06:20:03.411Z,12.80
2023-01-06T06:22:31.637Z,12.80
2023-01-06T06:24:58.311Z,12.80
2023-01-06T06:27:25.070Z,12.80
2023-01-06T06:29:51.839Z,12.80
2023-01-06T06:32:18.771Z,12.70
2023-01-06T06:34:45.445Z,12.70
2023-01-06T06:37:12.699Z,12.60
2023-01-06T06:39:39.621Z,12.60
2023-01-06T06:42:07.558Z,12.60
2023-01-06T06:44:34.251Z,12.60
2023-01-06T06:47:01.118Z,12.60
2023-01-06T06:49:27.831Z,12.60
2023-01-06T06:51:55.923Z,12.60
2023-01-06T06:54:22.869Z,12.60
2023-01-06T06:56:49.712Z,12.60
2023-01-06T06:59:18.324Z,12.60
2023-01-06T07:01:46.664Z,12.60
2023-01-06T07:04:17.880Z,12.50
2023-01-06T07:06:45.184Z,12.50
2023-01-06T07:09:12.951Z,12.50
2023-01-06T07:11:39.685Z,12.40
2023-01-06T07:14:08.169Z,12.40
2023-01-06T07:16:34.899Z,12.40
2023-01-06T07:19:01.594Z,12.40
2023-01-06T07:21:28.303Z,12.40
2023-01-06T07:23:54.997Z,12.40
2023-01-06T07:26:21.713Z,12.40
2023-01-06T07:28:48.509Z,12.40
2023-01-06T07:31:15.337Z,12.40
2023-01-06T07:33:42.125Z,12.40
2023-01-06T07:36:09.212Z,12.30
2023-01-06T07:38:36.064Z,12.30
2023-01-06T07:41:02.842Z,12.30
2023-01-06T07:43:29.641Z,12.40
2023-01-06T07:45:57.687Z,12.40
2023-01-06T07:48:25.692Z,12.40
2023-01-06T07:50:52.482Z,12.40
2023-01-06T07:53:19.268Z,12.40
2023-01-06T07:55:52.233Z,12.40
2023-01-06T07:58:19.166Z,12.40
2023-01-06T08:00:47.024Z,12.40
2023-01-06T08:03:14.228Z,12.40
2023-01-06T08:05:42.241Z,12.40
2023-01-06T08:08:13.323Z,12.40
2023-01-06T08:10:44.757Z,12.40
2023-01-06T08:13:11.770Z,12.40
2023-01-06T08:15:39.341Z,12.30
2023-01-06T08:18:06.762Z,12.30
2023-01-06T08:20:35.256Z,12.30
2023-01-06T08:23:02.918Z,12.30
2023-01-06T08:25:29.927Z,12.30
2023-01-06T08:27:59.113Z,12.40
2023-01-06T08:30:26.396Z,12.40
2023-01-06T08:32:57.249Z,12.40
2023-01-06T08:35:23.975Z,12.50
2023-01-06T08:37:50.789Z,12.50
2023-01-06T08:40:19.541Z,12.50
2023-01-06T08:42:47.361Z,12.60
2023-01-06T08:45:14.184Z,12.70
2023-01-06T08:47:42.016Z,12.80
2023-01-06T08:50:09.029Z,12.90
2023-01-06T08:52:35.781Z,12.90
2023-01-06T08:55:04.315Z,13.00
2023-01-06T08:57:34.863Z,13.10
2023-01-06T09:00:05.580Z,13.20
2023-01-06T09:02:32.423Z,13.30
2023-01-06T09:04:59.272Z,13.20
2023-01-06T09:07:27.135Z,13.20
2023-01-06T09:09:53.913Z,13.10
2023-01-06T09:12:22.053Z,13.20
2023-01-06T09:14:50.162Z,13.20
2023-01-06T09:17:18.030Z,13.20
2023-01-06T09:19:44.928Z,13.20
2023-01-06T09:22:11.691Z,13.20
2023-01-06T09:24:38.446Z,13.20
2023-01-06T09:27:05.224Z,13.20
2023-01-06T09:29:31.998Z,13.20
2023-01-06T09:31:58.678Z,13.10
2023-01-06T09:34:26.457Z,13.10
2023-01-06T09:36:53.255Z,13.10
2023-01-06T09:39:20.094Z,13.10
2023-01-06T09:42:14.869Z,13.10
2023-01-06T09:44:41.515Z,13.20
2023-01-06T09:47:13.841Z,13.30
2023-01-06T09:49:46.978Z,13.40
2023-01-06T09:52:19.679Z,13.50
2023-01-06T09:54:58.009Z,13.50
2023-01-06T09:57:48.614Z,13.60
2023-01-06T10:00:43.471Z,13.60
2023-01-06T10:03:21.827Z,13.70
2023-01-06T10:05:58.905Z,13.70
2023-01-06T10:08:28.719Z,13.70
2023-01-06T10:11:30.722Z,13.90
2023-01-06T10:14:18.277Z,13.90
2023-01-06T10:17:05.735Z,14.00
2023-01-06T10:19:54.143Z,13.90
2023-01-06T10:22:51.718Z,14.00
2023-01-06T10:25:18.531Z,14.10
2023-01-06T10:27:50.880Z,14.10
2023-01-06T10:30:30.769Z,14.20
2023-01-06T10:33:00.927Z,14.20
2023-01-06T10:35:28.370Z,14.20
2023-01-06T10:37:57.954Z,14.20
2023-01-06T10:40:30.627Z,14.20
2023-01-06T10:43:08.877Z,14.20
2023-01-06T10:45:44.113Z,14.20
2023-01-06T10:48:20.539Z,14.10
2023-01-06T10:50:47.768Z,14.30
2023-01-06T10:53:16.519Z,14.20
2023-01-06T10:56:01.539Z,14.20
2023-01-06T10:58:43.356Z,14.30
2023-01-06T11:01:33.909Z,14.30
2023-01-06T11:04:12.081Z,14.30
2023-01-06T11:06:50.199Z,14.30
2023-01-06T11:09:40.676Z,14.30
2023-01-06T11:12:14.604Z,14.40
2023-01-06T11:14:41.828Z,14.50
2023-01-06T11:17:16.058Z,14.50
2023-01-06T11:19:45.930Z,14.50
2023-01-06T11:22:36.128Z,14.50
2023-01-06T11:25:21.841Z,14.50
2023-01-06T11:28:20.657Z,14.50
2023-01-06T11:30:55.621Z,14.40
2023-01-06T11:33:29.714Z,14.40
2023-01-06T11:35:57.713Z,14.40
2023-01-06T11:38:25.290Z,14.40
2023-01-06T11:40:53.713Z,14.40
2023-01-06T11:43:25.443Z,14.40
2023-01-06T11:45:59.867Z,14.50
2023-01-06T11:48:31.566Z,14.60
2023-01-06T11:51:01.155Z,14.70
2023-01-06T11:53:29.948Z,14.70
2023-01-06T11:56:05.541Z,14.70
2023-01-06T11:58:51.593Z,14.70
2023-01-06T12:01:51.240Z,14.70
2023-01-06T12:04:42.272Z,14.80
2023-01-06T12:07:27.353Z,14.80
2023-01-06T12:09:56.721Z,14.80
2023-01-06T12:12:27.377Z,14.90
2023-01-06T12:14:55.069Z,14.90
2023-01-06T12:17:41.147Z,14.90
2023-01-06T12:20:28.875Z,14.90
2023-01-06T12:23:05.743Z,14.80
2023-01-06T12:25:39.041Z,14.80
2023-01-06T12:28:28.316Z,14.80
2023-01-06T12:31:35.298Z,14.80
2023-01-06T12:34:21.901Z,14.80
2023-01-06T12:37:15.970Z,14.80
2023-01-06T12:40:13.468Z,14.80
2023-01-06T12:43:02.013Z,14.90
2023-01-06T12:45:33.783Z,14.90
2023-01-06T12:48:05.886Z,14.90
2023-01-06T12:50:54.095Z,15.00
2023-01-06T12:53:28.204Z,15.00
2023-01-06T12:56:01.187Z,15.10
2023-01-06T12:58:58.744Z,15.00
2023-01-06T13:01:51.149Z,15.00
2023-01-06T13:04:38.273Z,15.00
2023-01-06T13:07:29.537Z,15.00
2023-01-06T13:10:14.845Z,14.90
2023-01-06T13:12:58.828Z,14.90
2023-01-06T13:15:31.936Z,14.90
2023-01-06T13:18:06.373Z,14.90
2023-01-06T13:21:04.442Z,15.00
2023-01-06T13:23:58.807Z,14.90
2023-01-06T13:26:53.878Z,14.90
2023-01-06T13:29:29.546Z,14.90
2023-01-06T13:32:14.970Z,14.90
2023-01-06T13:35:01.076Z,15.00
2023-01-06T13:38:05.419Z,14.90
2023-01-06T13:40:36.590Z,15.00
2023-01-06T13:43:28.145Z,14.90
2023-01-06T13:46:00.191Z,15.00
2023-01-06T13:48:32.065Z,14.90
2023-01-06T13:51:02.551Z,14.90
2023-01-06T13:53:37.608Z,14.90
2023-01-06T13:56:13.555Z,14.80
2023-01-06T13:58:47.903Z,14.80
2023-01-06T14:01:20.601Z,14.80
2023-01-06T14:03:49.722Z,14.80
2023-01-06T14:06:22.788Z,14.80
2023-01-06T14:08:57.194Z,14.70
2023-01-06T14:11:30.592Z,14.70
2023-01-06T14:14:03.733Z,14.70
2023-01-06T14:16:49.773Z,14.70
2023-01-06T14:19:36.316Z,14.60
2023-01-06T14:22:17.245Z,14.50
2023-01-06T14:24:52.351Z,14.50
2023-01-06T14:27:47.829Z,14.40
2023-01-06T14:30:31.953Z,14.30
2023-01-06T14:33:06.762Z,14.30
2023-01-06T14:35:43.890Z,14.20
2023-01-06T14:38:32.059Z,14.20
2023-01-06T14:41:05.259Z,14.20
2023-01-06T14:43:55.356Z,14.20
2023-01-06T14:46:41.926Z,14.20
2023-01-06T14:49:20.975Z,14.20
2023-01-06T14:51:50.714Z,14.20
2023-01-06T14:54:39.160Z,14.20
2023-01-06T14:57:06.598Z,14.20
2023-01-06T14:59:33.886Z,14.10
2023-01-06T15:02:04.332Z,14.10
2023-01-06T15:04:33.698Z,14.10
2023-01-06T15:07:19.633Z,14.10
2023-01-06T15:09:48.133Z,14.00
2023-01-06T15:12:29.468Z,14.00
2023-01-06T15:14:57.973Z,14.00
2023-01-06T15:17:26.667Z,14.00
2023-01-06T15:19:54.020Z,14.00
2023-01-06T15:22:24.869Z,14.00
2023-01-06T15:24:52.325Z,14.00
2023-01-06T15:27:20.123Z,14.00
2023-01-06T15:29:56.493Z,14.00
2023-01-06T15:32:25.485Z,14.00
2023-01-06T15:34:56.571Z,14.00
2023-01-06T15:37:26.466Z,14.10
2023-01-06T15:39:54.120Z,14.10
2023-01-06T15:42:26.351Z,14.10
2023-01-06T15:44:58.649Z,14.10
2023-01-06T15:47:28.354Z,14.10
2023-01-06T15:49:57.070Z,14.10
2023-01-06T15:52:34.791Z,14.10
2023-01-06T15:55:04.815Z,14.10
2023-01-06T15:57:36.801Z,14.10
2023-01-06T16:00:19.610Z,14.00
2023-01-06T16:02:49.783Z,14.00
2023-01-06T16:06:11.647Z,14.00
2023-01-06T16:08:39.455Z,13.90
2023-01-06T16:11:16.040Z,13.90
2023-01-06T16:14:00.952Z,13.90
2023-01-06T16:16:40.321Z,13.90
2023-01-06T16:19:13.904Z,13.80
2023-01-06T16:21:43.445Z,13.80
2023-01-06T16:24:26.763Z,13.80
2023-01-06T16:26:57.307Z,13.80
2023-01-06T16:29:28.968Z,13.80
2023-01-06T16:31:57.503Z,13.80
2023-01-06T16:34:31.485Z,13.80
2023-01-06T16:36:59.985Z,13.80
2023-01-06T16:39:27.719Z,13.80
2023-01-06T16:42:00.443Z,13.70
2023-01-06T16:44:29.767Z,13.70
2023-01-06T16:47:00.064Z,13.70
2023-01-06T16:49:26.800Z,13.60
2023-01-06T16:51:56.298Z,13.60
2023-01-06T16:54:23.845Z,13.60
2023-01-06T16:56:52.205Z,13.60
2023-01-06T16:59:20.525Z,13.60
2023-01-06T17:01:48.632Z,13.60
2023-01-06T17:04:17.412Z,13.60
2023-01-06T17:06:45.900Z,13.50
2023-01-06T17:09:23.227Z,13.50
2023-01-06T17:11:56.059Z,13.50
2023-01-06T17:14:24.453Z,13.50
2023-01-06T17:16:51.221Z,13.50
2023-01-06T17:19:25.315Z,13.50
2023-01-06T17:22:00.058Z,13.40
2023-01-06T17:24:30.631Z,13.40
2023-01-06T17:27:18.518Z,13.30
2023-01-06T17:29:45.314Z,13.30
2023-01-06T17:32:22.146Z,13.20
2023-01-06T17:34:49.136Z,13.20
2023-01-06T17:37:22.827Z,13.20
2023-01-06T17:39:50.279Z,13.20
2023-01-06T17:42:16.928Z,13.30
2023-01-06T17:44:51.612Z,13.30
2023-01-06T17:47:18.533Z,13.30
2023-01-06T17:49:55.595Z,13.30
2023-01-06T17:52:24.687Z,13.20
2023-01-06T17:55:17.154Z,13.20
2023-01-06T17:57:46.942Z,13.10
2023-01-06T18:00:38.579Z,13.20
2023-01-06T18:03:10.969Z,13.10
2023-01-06T18:05:37.664Z,13.10
2023-01-06T18:08:07.318Z,13.10
2023-01-06T18:10:36.158Z,13.10
2023-01-06T18:13:19.028Z,13.10
2023-01-06T18:15:48.748Z,13.10
2023-01-06T18:18:28.675Z,13.10
2023-01-06T18:20:58.476Z,13.10
2023-01-06T18:23:27.896Z,13.20
2023-01-06T18:25:58.800Z,13.10
2023-01-06T18:28:25.958Z,13.10
2023-01-06T18:31:00.752Z,13.10
2023-01-06T18:33:28.885Z,13.10
2023-01-06T18:35:58.520Z,13.10
2023-01-06T18:38:27.165Z,13.10
2023-01-06T18:40:55.072Z,13.10
2023-01-06T18:43:41.835Z,13.10
2023-01-06T18:46:15.363Z,13.20
2023-01-06T18:48:42.938Z,13.20
2023-01-06T18:51:35.780Z,13.30
2023-01-06T18:54:15.944Z,13.30
2023-01-06T18:56:46.225Z,13.30
2023-01-06T18:59:19.169Z,13.30
2023-01-06T19:01:50.802Z,13.30
2023-01-06T19:04:31.113Z,13.40
2023-01-06T19:07:08.655Z,13.30
2023-01-06T19:09:41.869Z,13.30
2023-01-06T19:12:08.576Z,13.40
2023-01-06T19:14:43.401Z,13.30
2023-01-06T19:17:17.566Z,13.30
2023-01-06T19:19:44.655Z,13.30
2023-01-06T19:22:28.086Z,13.30
2023-01-06T19:25:04.548Z,13.30
2023-01-06T19:27:39.368Z,13.30
2023-01-06T19:30:31.268Z,13.40
2023-01-06T19:33:26.806Z,13.40
2023-01-06T19:36:06.215Z,13.40
2023-01-06T19:38:41.140Z,13.40
2023-01-06T19:41:17.010Z,13.40
2023-01-06T19:43:44.016Z,13.40
2023-01-06T19:46:25.144Z,13.40
2023-01-06T19:48:54.361Z,13.40
2023-01-06T19:51:30.071Z,13.40
2023-01-06T19:54:20.166Z,13.40
2023-01-06T19:56:48.691Z,13.30
2023-01-06T19:59:17.348Z,13.30
2023-01-06T20:01:45.412Z,13.30
2023-01-06T20:04:22.244Z,13.20
2023-01-06T20:06:49.575Z,13.20
2023-01-06T20:09:19.133Z,13.30
2023-01-06T20:11:46.624Z,13.30
2023-01-06T20:14:13.500Z,13.30
2023-01-06T20:16:41.234Z,13.30
2023-01-06T20:19:08.091Z,13.30
2023-01-06T20:21:34.793Z,13.30
2023-01-06T20:24:01.510Z,13.20
2023-01-06T20:26:28.201Z,13.20
2023-01-06T20:28:54.933Z,13.20
2023-01-06T20:31:21.749Z,13.20
2023-01-06T20:33:48.484Z,13.20
2023-01-06T20:36:17.200Z,13.20
2023-01-06T20:38:44.957Z,13.20
2023-01-06T20:41:12.090Z,13.20
2023-01-06T20:43:38.981Z,13.20
2023-01-06T20:46:07.039Z,13.20
2023-01-06T20:48:33.939Z,13.10
2023-01-06T20:51:01.485Z,13.10
2023-01-06T20:53:28.266Z,13.10
2023-01-06T20:55:56.126Z,13.10
2023-01-06T20:58:22.892Z,13.00
2023-01-06T21:00:50.741Z,13.00
2023-01-06T21:03:18.902Z,13.00
2023-01-06T21:05:45.623Z,13.00
2023-01-06T21:08:12.430Z,13.00
2023-01-06T21:10:39.584Z,13.00
2023-01-06T21:13:06.409Z,13.00
2023-01-06T21:15:33.150Z,13.00
2023-01-06T21:18:00.919Z,13.00
2023-01-06T21:20:29.088Z,12.90
2023-01-06T21:22:55.797Z,12.90
2023-01-06T21:25:24.690Z,12.90
2023-01-06T21:27:51.440Z,12.90
2023-01-06T21:30:18.320Z,12.90
2023-01-06T21:32:46.468Z,12.90
2023-01-06T21:35:13.301Z,12.90
2023-01-06T21:37:40.119Z,12.90
2023-01-06T21:40:08.603Z,12.80
2023-01-06T21:42:54.439Z,12.80
2023-01-06T21:45:22.697Z,12.80
2023-01-06T21:47:49.403Z,12.80
2023-01-06T21:50:17.602Z,12.80
2023-01-06T21:52:46.616Z,12.70
2023-01-06T21:55:13.444Z,12.70
2023-01-06T21:57:40.671Z,12.70
2023-01-06T22:00:10.269Z,12.70
2023-01-06T22:02:37.354Z,12.70
2023-01-06T22:05:08.298Z,12.70
2023-01-06T22:07:38.146Z,12.70
2023-01-06T22:10:06.267Z,12.70
2023-01-06T22:12:33.872Z,12.60
2023-01-06T22:15:01.166Z,12.70
2023-01-06T22:17:28.027Z,12.70
2023-01-06T22:19:55.452Z,12.80
2023-01-06T22:22:23.400Z,12.70
2023-01-06T22:24:52.557Z,12.80
2023-01-06T22:27:19.371Z,12.80
2023-01-06T22:29:46.072Z,12.80
2023-01-06T22:32:14.799Z,12.80
2023-01-06T22:34:41.867Z,12.80
2023-01-06T22:37:10.141Z,12.60
2023-01-06T22:39:37.503Z,12.60
2023-01-06T22:42:04.421Z,12.60
2023-01-06T22:44:31.172Z,12.60
2023-01-06T22:46:57.901Z,12.50
2023-01-06T22:49:25.101Z,12.40
2023-01-06T22:51:52.129Z,12.40
2023-01-06T22:54:19.066Z,12.40
2023-01-06T22:56:46.139Z,12.40
2023-01-06T22:59:12.974Z,12.40
2023-01-06T23:01:42.048Z,12.40
2023-01-06T23:04:09.035Z,12.30
2023-01-06T23:06:35.819Z,12.30
2023-01-06T23:09:03.846Z,12.30
2023-01-06T23:11:32.603Z,12.30
2023-01-06T23:13:59.535Z,12.30
2023-01-06T23:16:27.227Z,12.30
2023-01-06T23:18:54.228Z,12.20
2023-01-06T23:21:23.945Z,12.30
2023-01-06T23:23:51.690Z,12.20
2023-01-06T23:26:34.109Z,12.20
2023-01-06T23:29:01.394Z,12.20
2023-01-06T23:31:30.978Z,12.20
2023-01-06T23:34:02.123Z,12.30
2023-01-06T23:36:30.827Z,12.20
2023-01-06T23:39:00.326Z,12.30
2023-01-06T23:41:30.596Z,12.30
2023-01-06T23:43:58.008Z,12.30
2023-01-06T23:46:30.735Z,12.30
2023-01-06T23:48:57.890Z,12.30
2023-01-06T23:51:25.759Z,12.30
2023-01-06T23:53:53.672Z,12.40
2023-01-06T23:56:23.212Z,12.30
2023-01-06T23:58:52.962Z,12.40
